Tokyo International Airport
RJTT : now visible

Airfield :











YOU CAN JOIN US ON...

 
LOGIN :

Register | Disclaimer

   EN    FR    IT 

 









Legend :    VFR   Marginal VFR   IFR   Intensive IFR   Very Intensive IFR
Visi :
Ceiling :
>= 8 km
>= 3000ft
5 to 8 km
1000 to 3000 ft
1500m to 5 km
500 to 1000 ft
800 to 1500m
200 to 500 ft
< 800m
< 200 ft
Symbols :   Thunderstorms  Fog  Heavy snow  Heavy precipitations  Wind > 20 kt







- Airport Elevation : 35 ft
- IATA code : HND


RJTT - Tokyo International

CURRENT METAR :
  • 221730Z 03010KT 9999 BKN045 17/11 Q1020 NOSIG RMK 7SC045 A3012

EXPIRED METARs :
  • 221700Z 02010KT 9999 BKN045 17/10 Q1019 NOSIG RMK 7SC045 A3011
  • 221630Z 02010KT 9999 VCSH FEW030 BKN040 BKN060 17/10 Q1019 NOSIG RMK 1CU030 6CU040 7SC060 A3010
  • 221600Z 01010KT 9999 -SHRA FEW030 BKN040 17/09 Q1019 NOSIG RMK 1CU030 7CU040 A3011
  • 221530Z 02011KT 9999 -SHRA FEW030 BKN040 17/11 Q1019 NOSIG RMK 1CU030 7CU040 A3010
  • 221500Z 02011KT 9999 VCSH FEW030 BKN040 17/10 Q1019 NOSIG RMK 2CU030 7CU040 A3010

TAF TAF RJTT
Valid from the 22 at 18:00 until the 24 at 00:00 UTC


221705Z 2218/2400 02012KT 9999 FEW020 BKN050
BECMG 2300/2302 07005KT
BECMG 2306/2309 18010KT
BECMG 2312/2315 12004KT
BECMG 2321/2400 18010KT
RJJJ FIR / Asia



MET'MAP, your aeronautical weather chart ! - Copyright ORBIFLY December 2007 - Disclaimer

ORBIFLY MET'MAP TEAM :

Programming & Development : Alexandra Zaïnal
Concept & Development : Baudouin d'Aumeries
Co-Development & Prog : Marc-Olivier Méhu
Technical & hardware support : Manuel Goepfert

Contact : metmap@orbifly.com




SOURCES & CREDITS :

   NOAA       Earth
Advisory